Time;durP1;ratioP1;P1;durP2;ratioP2;P2;SDS_P1;SDS_P2;PMS_P1;PMS_P2;Temp;Humidity;BMP_temperature;BMP_pressure;BME280_temperature;BME280_humidity;BME280_pressure;Samples;Min_cycle;Max_cycle;Signal;HPM_P1;HPM_P2
2023/05/28 00:02:05;;;;;;;7.10;2.75;;;11.20;99.90;;;;;;5033576;28;20508;-82
2023/05/28 00:04:31;;;;;;;5.57;2.92;;;11.10;99.90;;;;;;5033270;28;20201;-82
2023/05/28 00:06:57;;;;;;;4.88;2.95;;;11.10;99.90;;;;;;5033592;28;20233;-82
2023/05/28 00:09:23;;;;;;;6.75;3.10;;;11.00;99.90;;;;;;5033471;28;20509;-82
2023/05/28 00:11:48;;;;;;;6.68;3.03;;;11.00;99.90;;;;;;5032000;28;20221;-82
2023/05/28 00:14:14;;;;;;;6.82;3.45;;;10.80;99.90;;;;;;5031878;28;20190;-82
2023/05/28 00:16:43;;;;;;;4.72;2.67;;;10.70;99.90;;;;;;5032223;28;20175;-82
2023/05/28 00:19:09;;;;;;;4.50;2.53;;;10.70;99.90;;;;;;5050458;28;20261;-82
2023/05/28 00:21:36;;;;;;;5.78;2.38;;;10.70;99.90;;;;;;5051738;28;20177;-82
2023/05/28 00:24:02;;;;;;;5.20;2.50;;;10.60;99.90;;;;;;5051961;28;20181;-82
2023/05/28 00:26:29;;;;;;;8.73;2.55;;;10.60;99.90;;;;;;5052715;28;20208;-82
2023/05/28 00:28:54;;;;;;;4.38;2.53;;;10.70;99.90;;;;;;5051707;28;20600;-82
2023/05/28 00:31:20;;;;;;;5.03;2.67;;;10.80;99.90;;;;;;5051862;28;20174;-82
2023/05/28 00:33:46;;;;;;;3.65;2.42;;;10.70;99.90;;;;;;5051687;28;20193;-82
2023/05/28 00:36:15;;;;;;;5.50;2.97;;;10.60;99.90;;;;;;5053388;28;20209;-82
2023/05/28 00:38:41;;;;;;;6.53;3.10;;;10.60;99.90;;;;;;5051907;28;20185;-82
2023/05/28 00:41:06;;;;;;;7.47;3.25;;;10.40;99.90;;;;;;5052888;28;20162;-82
2023/05/28 00:43:32;;;;;;;6.50;2.97;;;10.40;99.90;;;;;;5044368;28;20325;-82
2023/05/28 00:46:03;;;;;;;5.70;3.13;;;10.40;99.90;;;;;;5031817;28;20614;-82
2023/05/28 00:48:30;;;;;;;4.57;2.67;;;10.40;99.90;;;;;;5032886;28;20198;-82
2023/05/28 00:50:58;;;;;;;3.72;2.50;;;10.30;99.90;;;;;;5031819;28;20201;-82
2023/05/28 00:53:24;;;;;;;3.88;2.65;;;10.30;99.90;;;;;;5034292;28;20191;-82
2023/05/28 00:55:51;;;;;;;5.65;3.30;;;10.20;99.90;;;;;;5036702;28;20221;-82
2023/05/28 00:58:19;;;;;;;4.05;2.88;;;10.30;99.90;;;;;;5036436;28;20495;-82
2023/05/28 01:00:46;;;;;;;4.93;2.80;;;10.30;99.90;;;;;;5036722;28;20158;-82
2023/05/28 01:03:14;;;;;;;6.28;2.80;;;10.30;99.90;;;;;;5036354;28;20171;-82
2023/05/28 01:05:40;;;;;;;3.80;2.58;;;10.30;99.90;;;;;;5036841;28;20171;-83
2023/05/28 01:08:07;;;;;;;5.25;2.50;;;10.40;99.90;;;;;;5035363;28;20222;-82
2023/05/28 01:10:34;;;;;;;6.70;3.03;;;10.30;99.90;;;;;;5035095;28;20174;-82
2023/05/28 01:13:04;;;;;;;5.32;2.88;;;10.30;99.90;;;;;;5035140;28;20581;-82
2023/05/28 01:15:29;;;;;;;6.55;2.53;;;10.20;99.90;;;;;;5036258;28;20202;-82
2023/05/28 01:18:00;;;;;;;5.03;2.80;;;10.10;99.90;;;;;;5036507;28;20202;-82
2023/05/28 01:20:30;;;;;;;5.00;2.55;;;10.00;99.90;;;;;;5036424;28;20174;-82
2023/05/28 01:23:05;;;;;;;6.38;3.10;;;9.90;99.90;;;;;;5036146;28;20174;-82
2023/05/28 01:25:32;;;;;;;3.88;2.40;;;9.90;99.90;;;;;;5034779;28;20181;-82
2023/05/28 01:28:01;;;;;;;4.43;2.50;;;10.00;99.90;;;;;;5034721;28;20210;-83
2023/05/28 01:30:27;;;;;;;4.75;2.83;;;10.00;99.90;;;;;;5034413;28;20174;-82
2023/05/28 01:32:53;;;;;;;4.05;2.75;;;10.00;99.90;;;;;;5036084;28;20233;-82
2023/05/28 01:35:20;;;;;;;5.50;2.30;;;9.90;99.90;;;;;;5036201;28;20167;-83
2023/05/28 01:37:53;;;;;;;4.88;2.70;;;9.90;99.90;;;;;;5034799;28;20678;-82
2023/05/28 01:40:19;;;;;;;6.30;3.17;;;10.00;99.90;;;;;;5034548;28;20609;-82
2023/05/28 01:42:50;;;;;;;4.72;2.50;;;9.90;99.90;;;;;;5034432;28;20178;-82
2023/05/28 01:45:17;;;;;;;5.47;2.60;;;9.90;99.90;;;;;;5035678;28;20258;-83
2023/05/28 01:47:43;;;;;;;6.45;2.90;;;9.90;99.90;;;;;;5035833;28;20203;-82
2023/05/28 01:50:10;;;;;;;4.95;2.72;;;9.90;99.90;;;;;;5051210;28;20179;-82
2023/05/28 01:52:36;;;;;;;6.18;2.45;;;9.90;99.90;;;;;;5035671;28;20590;-82
2023/05/28 01:55:01;;;;;;;4.82;3.15;;;9.90;99.90;;;;;;5034908;28;20233;-82
2023/05/28 01:57:27;;;;;;;6.78;2.90;;;9.80;99.90;;;;;;5035726;28;20190;-83
2023/05/28 01:59:53;;;;;;;6.38;2.92;;;9.70;99.90;;;;;;5034929;28;20386;-83
2023/05/28 02:02:21;;;;;;;10.65;3.40;;;9.80;99.90;;;;;;5034413;28;20182;-83
2023/05/28 02:04:46;;;;;;;4.47;2.95;;;9.80;99.90;;;;;;5033437;28;20175;-83
2023/05/28 02:07:13;;;;;;;9.10;3.55;;;9.80;99.90;;;;;;5035450;28;20579;-83
2023/05/28 02:09:39;;;;;;;6.65;3.15;;;9.70;99.90;;;;;;5034029;28;20183;-82
2023/05/28 02:12:05;;;;;;;7.95;3.35;;;9.60;99.90;;;;;;5034137;28;20206;-82
2023/05/28 02:14:31;;;;;;;4.28;2.85;;;9.50;99.90;;;;;;5033757;28;20189;-83
2023/05/28 02:16:56;;;;;;;6.93;2.90;;;9.50;99.90;;;;;;5034199;28;20174;-83
2023/05/28 02:19:24;;;;;;;5.35;3.20;;;9.40;99.90;;;;;;5034042;28;20277;-82
2023/05/28 02:21:51;;;;;;;6.72;2.90;;;9.40;99.90;;;;;;5033900;28;20514;-82
2023/05/28 02:24:17;;;;;;;7.28;3.22;;;9.40;99.90;;;;;;5035026;28;20181;-82
2023/05/28 02:26:42;;;;;;;5.45;3.20;;;9.20;99.90;;;;;;5388495;23;20219;-87
2023/05/28 02:29:08;;;;;;;4.50;2.88;;;9.20;99.90;;;;;;5052920;28;20285;-89
2023/05/28 02:31:34;;;;;;;7.05;3.63;;;9.30;99.90;;;;;;5056241;28;20630;-89
2023/05/28 02:34:00;;;;;;;7.53;3.47;;;9.30;99.90;;;;;;5056364;28;20247;-91
2023/05/28 02:36:25;;;;;;;5.97;3.90;;;9.30;99.90;;;;;;5055327;28;20174;-88
2023/05/28 02:38:53;;;;;;;7.30;3.45;;;9.20;99.90;;;;;;5056296;28;20547;-89
2023/05/28 02:41:19;;;;;;;6.15;3.58;;;9.20;99.90;;;;;;5055176;28;20166;-84
2023/05/28 02:43:45;;;;;;;5.93;3.15;;;9.20;99.90;;;;;;5056156;28;20177;-89
2023/05/28 02:46:10;;;;;;;4.57;3.28;;;9.20;99.90;;;;;;5055270;28;20177;-89
2023/05/28 02:48:37;;;;;;;5.88;3.05;;;9.20;99.90;;;;;;5055287;28;20189;-90
2023/05/28 02:51:03;;;;;;;5.72;3.28;;;9.20;99.90;;;;;;5056111;28;20170;-89
2023/05/28 02:53:31;;;;;;;11.43;4.07;;;9.10;99.90;;;;;;5055951;28;20178;-89
2023/05/28 02:55:57;;;;;;;4.57;3.15;;;9.10;99.90;;;;;;5053976;28;20178;-89
2023/05/28 02:58:24;;;;;;;4.25;2.67;;;9.00;99.90;;;;;;5055374;28;20201;-89
2023/05/28 03:00:50;;;;;;;6.65;3.10;;;9.00;99.90;;;;;;5054808;28;20200;-89
2023/05/28 03:03:16;;;;;;;8.50;3.10;;;9.00;99.90;;;;;;5055963;28;20659;-89
2023/05/28 03:05:42;;;;;;;5.40;2.97;;;9.00;99.90;;;;;;5055597;28;20177;-89
2023/05/28 03:08:08;;;;;;;7.33;3.00;;;9.00;99.90;;;;;;5054692;28;20683;-89
2023/05/28 03:10:33;;;;;;;3.60;2.90;;;9.00;99.90;;;;;;5055934;28;20177;-90
2023/05/28 03:12:59;;;;;;;4.25;2.70;;;9.00;99.90;;;;;;5055478;28;20174;-90
2023/05/28 03:15:27;;;;;;;5.53;3.03;;;9.00;99.90;;;;;;5055340;28;20528;-90
2023/05/28 03:17:53;;;;;;;5.70;3.05;;;8.90;99.90;;;;;;5055617;28;20178;-90
2023/05/28 03:20:26;;;;;;;6.10;2.85;;;8.90;99.90;;;;;;5055451;28;20181;-92
2023/05/28 03:22:56;;;;;;;5.40;2.85;;;8.90;99.90;;;;;;5055494;28;20174;-92
2023/05/28 03:25:24;;;;;;;5.38;3.35;;;8.80;99.90;;;;;;5055635;28;20574;-93
2023/05/28 03:27:50;;;;;;;4.30;2.53;;;8.80;99.90;;;;;;5053953;28;20240;-90
2023/05/28 03:30:18;;;;;;;6.15;2.95;;;8.80;99.90;;;;;;5054346;28;20264;-91
2023/05/28 03:32:44;;;;;;;5.43;3.38;;;8.70;99.90;;;;;;5055363;28;20601;-89
2023/05/28 03:35:09;;;;;;;5.80;3.38;;;8.70;99.90;;;;;;5055290;28;20162;-89
2023/05/28 03:37:35;;;;;;;6.18;3.03;;;8.60;99.90;;;;;;5053106;28;20178;-91
2023/05/28 03:40:04;;;;;;;5.80;3.50;;;8.60;99.90;;;;;;5055314;28;20617;-90
2023/05/28 03:42:30;;;;;;;3.65;3.22;;;8.50;99.90;;;;;;5054357;28;20181;-90
2023/05/28 03:44:56;;;;;;;3.60;2.72;;;8.60;99.90;;;;;;5055441;28;20174;-89
2023/05/28 03:47:22;;;;;;;4.90;3.03;;;8.50;99.90;;;;;;5054394;28;20220;-90
2023/05/28 03:49:49;;;;;;;5.25;3.47;;;8.50;99.90;;;;;;5054813;28;20166;-90
2023/05/28 03:52:15;;;;;;;6.30;3.50;;;8.60;99.90;;;;;;5053409;28;20174;-90
2023/05/28 03:54:40;;;;;;;6.03;3.30;;;8.70;99.90;;;;;;5053410;28;20177;-90
2023/05/28 03:57:06;;;;;;;5.88;3.67;;;8.80;99.90;;;;;;5054086;28;20268;-89
2023/05/28 03:59:32;;;;;;;6.18;3.47;;;8.80;99.90;;;;;;5055183;28;20251;-91
2023/05/28 04:01:58;;;;;;;4.75;3.20;;;8.90;99.90;;;;;;5055104;28;20170;-90
2023/05/28 04:04:24;;;;;;;7.70;3.87;;;8.90;99.90;;;;;;5053196;28;20185;-89
2023/05/28 04:06:49;;;;;;;5.32;3.10;;;8.90;99.90;;;;;;5054616;28;20647;-91
2023/05/28 04:09:16;;;;;;;6.17;3.20;;;8.90;99.90;;;;;;5053559;28;20228;-90
2023/05/28 04:11:42;;;;;;;5.57;3.47;;;8.90;99.90;;;;;;5055043;28;20640;-91
2023/05/28 04:14:09;;;;;;;6.53;3.83;;;8.90;99.90;;;;;;5054751;28;20257;-91
2023/05/28 04:16:35;;;;;;;7.82;4.05;;;9.00;99.90;;;;;;5054765;28;20169;-90
2023/05/28 04:19:01;;;;;;;9.13;4.18;;;9.10;99.90;;;;;;5054929;28;20276;-91
2023/05/28 04:21:28;;;;;;;6.35;4.15;;;9.10;99.90;;;;;;5053849;28;20248;-91
2023/05/28 04:23:55;;;;;;;6.20;4.07;;;9.20;99.90;;;;;;5053651;28;20177;-91
2023/05/28 04:26:22;;;;;;;5.35;4.40;;;9.20;99.90;;;;;;5054125;28;20204;-92
2023/05/28 04:28:50;;;;;;;8.43;4.30;;;9.30;99.90;;;;;;5057475;28;20240;-91
2023/05/28 04:31:16;;;;;;;5.25;4.13;;;9.30;99.90;;;;;;5058671;28;20158;-91
2023/05/28 04:33:46;;;;;;;6.68;4.32;;;9.40;99.90;;;;;;5057583;28;20627;-91
2023/05/28 04:36:13;;;;;;;7.97;4.15;;;9.50;99.90;;;;;;5057674;28;20173;-90
2023/05/28 04:38:39;;;;;;;8.98;4.43;;;9.60;99.90;;;;;;5045638;28;20639;-91
2023/05/28 04:41:24;;;;;;;8.43;4.20;;;9.70;99.90;;;;;;5052139;28;20178;-92
2023/05/28 04:43:49;;;;;;;6.80;4.22;;;9.90;99.90;;;;;;5058390;28;20162;-91
2023/05/28 04:46:16;;;;;;;6.72;3.92;;;10.00;99.90;;;;;;5052154;28;20201;-91
2023/05/28 04:48:41;;;;;;;10.23;4.63;;;10.30;99.90;;;;;;5038281;28;20182;-91
2023/05/28 04:51:09;;;;;;;8.95;4.70;;;10.40;99.90;;;;;;5037883;28;20182;-90
2023/05/28 04:53:35;;;;;;;7.10;4.32;;;10.60;99.90;;;;;;5043269;28;20605;-91
2023/05/28 04:56:03;;;;;;;8.30;4.10;;;10.70;99.90;;;;;;5049060;28;20178;-91
2023/05/28 04:58:29;;;;;;;7.93;4.05;;;10.90;99.90;;;;;;5048160;28;20170;-91
2023/05/28 05:00:55;;;;;;;10.55;4.40;;;11.00;99.90;;;;;;5049447;28;20179;-91
2023/05/28 05:03:21;;;;;;;8.48;4.45;;;11.20;99.90;;;;;;5051820;28;20174;-92
2023/05/28 05:05:47;;;;;;;5.85;3.65;;;11.30;99.90;;;;;;5057751;28;20495;-92
2023/05/28 05:08:13;;;;;;;8.85;4.32;;;11.40;99.90;;;;;;5055901;28;20217;-91
2023/05/28 05:10:40;;;;;;;5.60;3.88;;;11.50;99.90;;;;;;5043376;28;21661;-91
2023/05/28 05:13:06;;;;;;;9.15;4.07;;;11.50;99.90;;;;;;5044908;28;20197;-91
2023/05/28 05:15:33;;;;;;;6.45;4.18;;;11.50;99.90;;;;;;5037088;28;20640;-91
2023/05/28 05:17:58;;;;;;;6.85;4.35;;;11.50;99.90;;;;;;5036539;28;20570;-92
2023/05/28 05:20:29;;;;;;;7.13;3.95;;;11.50;99.90;;;;;;5036731;28;20175;-91
2023/05/28 05:22:56;;;;;;;6.68;4.07;;;11.50;99.90;;;;;;5036540;28;20266;-90
2023/05/28 05:25:22;;;;;;;5.97;4.00;;;11.50;99.90;;;;;;5036781;28;20213;-89
2023/05/28 05:27:51;;;;;;;5.35;4.00;;;11.50;99.90;;;;;;5037449;28;20258;-92
2023/05/28 05:30:17;;;;;;;8.85;4.43;;;11.60;99.90;;;;;;5036690;28;20525;-91
2023/05/28 05:32:42;;;;;;;6.50;4.53;;;11.60;99.90;;;;;;5036869;28;20175;-90
2023/05/28 05:35:09;;;;;;;8.60;4.15;;;11.70;99.90;;;;;;5053534;28;20224;-90
2023/05/28 05:37:35;;;;;;;8.00;4.20;;;11.80;99.90;;;;;;5057215;28;20174;-89
2023/05/28 05:40:01;;;;;;;6.70;4.15;;;12.00;99.90;;;;;;5055523;28;20170;-90
2023/05/28 05:42:27;;;;;;;7.10;4.10;;;12.10;99.90;;;;;;5057154;28;20617;-90
2023/05/28 05:44:53;;;;;;;8.32;4.82;;;12.20;99.90;;;;;;5057583;28;20170;-91
2023/05/28 05:47:18;;;;;;;8.82;4.30;;;12.30;99.90;;;;;;5057270;28;20209;-91
2023/05/28 05:49:46;;;;;;;6.97;4.32;;;12.40;99.90;;;;;;5038132;28;20182;-91
2023/05/28 05:52:12;;;;;;;9.98;4.53;;;12.50;99.90;;;;;;5036294;28;20170;-90
2023/05/28 05:54:37;;;;;;;7.78;4.75;;;12.60;99.90;;;;;;5041559;28;20608;-91
2023/05/28 05:57:03;;;;;;;6.40;4.43;;;12.70;99.90;;;;;;5056828;28;20556;-91
2023/05/28 05:59:29;;;;;;;9.15;4.60;;;12.70;99.90;;;;;;5056535;28;20181;-93
2023/05/28 06:02:01;;;;;;;7.32;4.20;;;12.80;99.90;;;;;;5057053;28;20174;-92
2023/05/28 06:04:31;;;;;;;7.72;4.00;;;12.80;99.90;;;;;;5056866;28;20186;-92
2023/05/28 06:06:57;;;;;;;7.75;4.32;;;12.90;99.90;;;;;;5055741;28;20206;-92
2023/05/28 06:09:24;;;;;;;6.30;3.90;;;12.90;99.90;;;;;;5055488;28;20228;-92
2023/05/28 06:11:50;;;;;;;7.20;4.00;;;13.00;99.90;;;;;;5055763;28;20212;-91
2023/05/28 06:14:16;;;;;;;5.95;3.60;;;13.10;99.90;;;;;;5056332;28;20172;-91
2023/05/28 06:16:42;;;;;;;5.95;3.75;;;13.20;99.90;;;;;;5055713;28;20280;-92
2023/05/28 06:19:08;;;;;;;6.65;4.07;;;13.20;99.90;;;;;;5055293;28;20178;-92
2023/05/28 06:21:41;;;;;;;6.82;3.97;;;13.30;99.90;;;;;;5056556;28;20257;-92
2023/05/28 06:24:07;;;;;;;9.82;4.10;;;13.50;99.90;;;;;;5056321;28;20550;-92
2023/05/28 06:26:32;;;;;;;4.45;3.33;;;13.60;99.90;;;;;;5056293;28;20178;-90
2023/05/28 06:28:58;;;;;;;6.22;3.67;;;13.70;99.90;;;;;;5056543;28;20178;-90
2023/05/28 06:31:27;;;;;;;6.75;3.42;;;13.80;99.90;;;;;;5056634;28;20236;-90
2023/05/28 06:33:53;;;;;;;8.25;4.10;;;13.90;99.90;;;;;;5056193;28;20193;-91
2023/05/28 06:36:18;;;;;;;6.82;3.53;;;14.10;99.90;;;;;;5056444;28;20181;-92
2023/05/28 06:38:45;;;;;;;5.90;3.50;;;14.20;99.90;;;;;;5054849;28;20173;-92
2023/05/28 06:41:11;;;;;;;5.72;3.13;;;14.30;99.90;;;;;;5056253;28;20180;-94
2023/05/28 06:43:38;;;;;;;3.47;2.95;;;14.40;99.90;;;;;;5056045;28;20166;-91
2023/05/28 06:46:04;;;;;;;4.47;2.97;;;14.60;99.90;;;;;;5056304;28;20195;-92
2023/05/28 06:48:29;;;;;;;6.70;2.90;;;14.70;99.90;;;;;;5056240;28;20214;-92
2023/05/28 06:50:56;;;;;;;3.92;2.90;;;14.90;99.90;;;;;;5052811;28;20182;-91
2023/05/28 06:53:22;;;;;;;5.78;2.92;;;15.20;99.90;;;;;;5054717;28;20189;-89
2023/05/28 06:55:47;;;;;;;5.72;3.03;;;15.40;99.90;;;;;;5050665;28;20170;-92
2023/05/28 06:58:13;;;;;;;7.25;2.70;;;15.60;99.90;;;;;;5043370;28;20609;-91
2023/05/28 07:00:40;;;;;;;3.63;2.30;;;15.80;99.90;;;;;;5050477;28;20613;-92
2023/05/28 07:03:08;;;;;;;4.70;2.60;;;16.00;99.90;;;;;;5044117;28;20175;-91
2023/05/28 07:05:36;;;;;;;4.90;2.90;;;16.20;99.90;;;;;;5041881;28;20173;-91
2023/05/28 07:08:02;;;;;;;4.97;2.42;;;16.40;99.90;;;;;;5047341;28;20210;-91
2023/05/28 07:10:28;;;;;;;5.00;2.22;;;16.50;99.90;;;;;;5054713;28;20265;-91
2023/05/28 07:12:53;;;;;;;3.28;2.50;;;16.60;99.90;;;;;;5054453;28;20269;-90
2023/05/28 07:15:21;;;;;;;5.05;2.35;;;16.80;99.90;;;;;;5044194;28;20182;-91
2023/05/28 07:17:47;;;;;;;5.03;2.60;;;17.00;99.90;;;;;;5035598;28;20170;-93
2023/05/28 07:20:13;;;;;;;3.70;2.35;;;17.20;99.90;;;;;;5042510;28;20186;-92
2023/05/28 07:22:40;;;;;;;5.20;2.38;;;17.40;99.90;;;;;;5054330;28;20289;-92
2023/05/28 07:25:07;;;;;;;11.25;2.90;;;17.60;99.90;;;;;;5054986;28;20178;-91
2023/05/28 07:27:33;;;;;;;3.65;2.05;;;17.80;99.90;;;;;;5055543;28;20237;-92
2023/05/28 07:30:00;;;;;;;3.08;2.20;;;17.90;98.30;;;;;;5038104;28;20202;-92
2023/05/28 07:32:28;;;;;;;3.95;2.28;;;18.10;99.30;;;;;;5041258;28;20249;-88
2023/05/28 07:34:54;;;;;;;5.32;2.10;;;18.20;98.50;;;;;;5035410;28;20593;-91
2023/05/28 07:37:19;;;;;;;5.40;2.10;;;18.30;97.80;;;;;;5035267;28;20221;-87
2023/05/28 07:39:45;;;;;;;3.15;1.83;;;18.30;97.00;;;;;;5048358;28;20212;-92
2023/05/28 07:42:12;;;;;;;4.28;2.40;;;18.40;97.30;;;;;;5054698;28;20563;-90
2023/05/28 07:44:38;;;;;;;5.30;2.38;;;18.40;96.10;;;;;;5054496;28;20166;-92
2023/05/28 07:47:03;;;;;;;4.05;2.00;;;18.50;97.20;;;;;;5055094;28;20209;-95
2023/05/28 07:49:29;;;;;;;7.22;2.25;;;18.70;95.80;;;;;;5055115;28;20570;-93
2023/05/28 07:51:55;;;;;;;3.38;1.77;;;18.70;97.30;;;;;;5053933;28;20608;-95
2023/05/28 07:54:21;;;;;;;3.63;2.10;;;18.80;94.90;;;;;;5054996;28;20194;-95
2023/05/28 07:56:48;;;;;;;3.83;1.92;;;18.90;96.90;;;;;;5054409;28;20178;-95
2023/05/28 07:59:14;;;;;;;3.97;2.42;;;18.90;95.80;;;;;;5054079;28;20185;-92
2023/05/28 08:01:51;;;;;;;4.40;2.35;;;19.00;95.70;;;;;;5054210;28;20170;-94
2023/05/28 08:04:16;;;;;;;3.45;2.10;;;19.20;96.40;;;;;;5055050;28;20216;-92
2023/05/28 08:06:43;;;;;;;3.85;1.75;;;19.30;95.50;;;;;;5054976;28;20588;-94
2023/05/28 08:09:08;;;;;;;4.05;2.08;;;19.40;95.90;;;;;;5054943;28;20181;-95
2023/05/28 08:11:35;;;;;;;2.85;1.70;;;19.50;94.60;;;;;;5053584;28;20536;-94
2023/05/28 08:14:02;;;;;;;4.32;1.73;;;19.60;95.60;;;;;;5053107;28;20223;-88
2023/05/28 08:16:28;;;;;;;3.83;1.73;;;19.80;95.60;;;;;;5054429;28;20193;-92
2023/05/28 08:18:53;;;;;;;2.22;1.60;;;19.90;94.20;;;;;;5054718;28;20624;-92
2023/05/28 08:21:36;;;;;;;5.10;1.90;;;20.10;92.70;;;;;;5045931;28;20185;-89
2023/05/28 08:24:02;;;;;;;3.67;1.58;;;20.10;93.50;;;;;;5033715;28;20171;-90
2023/05/28 08:26:28;;;;;;;4.55;2.10;;;20.20;93.40;;;;;;5049712;28;20182;-82
2023/05/28 08:28:53;;;;;;;5.50;1.90;;;20.40;93.20;;;;;;5046924;28;20192;-93
2023/05/28 08:31:22;;;;;;;3.80;1.90;;;20.50;93.00;;;;;;5052990;28;20673;-88
2023/05/28 08:33:47;;;;;;;2.67;1.70;;;20.60;90.70;;;;;;5052999;28;20276;-94
2023/05/28 08:36:13;;;;;;;2.65;1.60;;;20.80;92.30;;;;;;5054172;28;20253;-93
2023/05/28 08:38:39;;;;;;;4.45;2.00;;;20.90;93.10;;;;;;5046263;28;20178;-94
2023/05/28 08:41:05;;;;;;;5.22;1.90;;;21.00;91.90;;;;;;5034005;28;20178;-93
2023/05/28 08:43:39;;;;;;;4.10;1.83;;;21.10;90.30;;;;;;5041553;28;20500;-96
2023/05/28 08:46:05;;;;;;;4.15;1.92;;;21.20;87.50;;;;;;5033514;28;20178;-96
2023/05/28 08:48:34;;;;;;;3.33;1.55;;;21.30;87.10;;;;;;5033200;28;20306;-96
2023/05/28 08:51:00;;;;;;;2.67;1.88;;;21.30;87.70;;;;;;5049966;28;20256;-93
2023/05/28 08:53:32;;;;;;;3.28;1.90;;;21.30;83.70;;;;;;5054404;28;20182;-95
2023/05/28 08:55:59;;;;;;;2.35;1.58;;;21.30;86.40;;;;;;5055302;28;20162;-96
2023/05/28 08:58:25;;;;;;;2.97;1.65;;;21.30;85.80;;;;;;5054016;28;20197;-96
2023/05/28 09:00:51;;;;;;;2.83;1.70;;;21.30;84.80;;;;;;5057639;28;20166;-96
2023/05/28 09:03:17;;;;;;;3.58;1.65;;;21.30;84.90;;;;;;5057550;28;20173;-92
2023/05/28 09:05:42;;;;;;;4.63;1.70;;;21.30;83.30;;;;;;5051450;28;20182;-92
2023/05/28 09:08:18;;;;;;;3.10;1.90;;;21.40;83.80;;;;;;5046797;28;20205;-94
2023/05/28 09:10:44;;;;;;;3.55;1.75;;;21.50;83.40;;;;;;5053826;28;20189;-95
2023/05/28 09:13:14;;;;;;;3.78;1.77;;;21.60;83.30;;;;;;5053745;28;20612;-90
2023/05/28 09:15:41;;;;;;;3.00;1.80;;;21.70;82.00;;;;;;5057956;28;20160;-93
2023/05/28 09:18:07;;;;;;;4.82;2.30;;;21.80;84.50;;;;;;5058143;28;20169;-92
2023/05/28 09:20:33;;;;;;;4.05;1.98;;;21.90;84.50;;;;;;5056531;28;20178;-93
2023/05/28 09:23:06;;;;;;;8.32;2.30;;;22.10;84.30;;;;;;5057783;28;20197;-93
2023/05/28 09:25:35;;;;;;;5.05;2.10;;;22.00;81.90;;;;;;5057813;28;20178;-92
2023/05/28 09:28:01;;;;;;;5.85;2.15;;;22.10;83.40;;;;;;5057447;28;20233;-92
2023/05/28 09:30:29;;;;;;;6.95;1.98;;;22.20;83.30;;;;;;5057533;28;20483;-93
2023/05/28 09:33:05;;;;;;;5.75;2.10;;;22.30;80.50;;;;;;5057972;28;20202;-94
2023/05/28 09:35:31;;;;;;;4.63;2.38;;;22.30;81.40;;;;;;5050282;28;20177;-90
2023/05/28 09:38:08;;;;;;;3.92;1.70;;;22.40;81.20;;;;;;5049536;28;20265;-91
2023/05/28 09:40:44;;;;;;;4.80;2.03;;;22.50;79.60;;;;;;5057705;28;20165;-90
2023/05/28 09:43:30;;;;;;;5.22;2.17;;;22.60;82.90;;;;;;5056351;28;20232;-91
2023/05/28 09:46:09;;;;;;;5.57;2.10;;;22.70;78.90;;;;;;5057391;28;20200;-92
2023/05/28 09:48:35;;;;;;;4.80;2.15;;;22.70;83.90;;;;;;5056913;28;20205;-90
2023/05/28 09:51:04;;;;;;;4.68;1.88;;;22.80;82.50;;;;;;5056473;28;20175;-87
2023/05/28 09:53:34;;;;;;;5.13;2.10;;;22.80;83.00;;;;;;5055186;28;20235;-89
2023/05/28 09:56:02;;;;;;;3.50;2.08;;;22.80;79.80;;;;;;5056939;28;20161;-90
2023/05/28 09:58:34;;;;;;;6.90;2.30;;;22.90;82.30;;;;;;5052062;28;20179;-88
2023/05/28 10:01:05;;;;;;;5.28;2.08;;;23.00;79.50;;;;;;5036335;28;20621;-89
2023/05/28 10:03:51;;;;;;;3.40;2.00;;;23.10;78.90;;;;;;5035913;28;20281;-91
2023/05/28 10:06:21;;;;;;;5.72;2.10;;;23.00;81.00;;;;;;5037221;28;20158;-91
2023/05/28 10:08:51;;;;;;;6.72;2.17;;;23.00;79.60;;;;;;5048844;28;20559;-89
2023/05/28 10:11:22;;;;;;;5.95;2.63;;;23.00;82.70;;;;;;5056708;28;20166;-89
2023/05/28 10:13:48;;;;;;;4.38;2.10;;;22.90;81.00;;;;;;5056648;28;20166;-89
2023/05/28 10:16:14;;;;;;;6.32;2.40;;;23.00;82.20;;;;;;5056694;28;20171;-90
2023/05/28 10:18:41;;;;;;;3.63;1.98;;;23.20;80.60;;;;;;5056649;28;20227;-92
2023/05/28 10:21:09;;;;;;;3.40;1.88;;;23.30;82.90;;;;;;5055409;28;20182;-89
2023/05/28 10:23:37;;;;;;;5.88;2.13;;;23.50;80.80;;;;;;5056138;28;20257;-92
2023/05/28 10:26:03;;;;;;;5.05;2.00;;;23.60;83.40;;;;;;5053807;28;20274;-91
2023/05/28 10:28:30;;;;;;;5.72;2.35;;;23.60;82.80;;;;;;5054586;28;20325;-89
2023/05/28 10:31:04;;;;;;;7.25;2.40;;;23.30;79.70;;;;;;5055018;28;20182;-87
2023/05/28 10:33:41;;;;;;;3.63;1.85;;;23.30;78.80;;;;;;5056029;28;20552;-92
2023/05/28 10:36:12;;;;;;;3.80;1.98;;;23.40;78.70;;;;;;5055235;28;20223;-90
2023/05/28 10:38:48;;;;;;;4.47;2.15;;;23.50;82.20;;;;;;5055182;28;20196;-89
2023/05/28 10:41:21;;;;;;;5.38;2.58;;;23.70;79.70;;;;;;5056111;28;20241;-91
2023/05/28 10:43:51;;;;;;;5.63;2.70;;;23.60;79.30;;;;;;5071320;28;20174;-89
2023/05/28 10:46:19;;;;;;;7.63;3.03;;;23.80;80.00;;;;;;5055999;28;20173;-91
2023/05/28 10:49:16;;;;;;;5.82;2.60;;;23.70;75.40;;;;;;5055771;28;20205;-90
2023/05/28 10:52:00;;;;;;;5.28;2.80;;;23.70;77.30;;;;;;5056155;28;20170;-89
2023/05/28 10:54:36;;;;;;;4.68;2.63;;;23.60;78.40;;;;;;5054475;28;20257;-90
2023/05/28 10:57:14;;;;;;;3.80;2.75;;;23.70;78.00;;;;;;5055715;28;20200;-88
2023/05/28 10:59:47;;;;;;;6.43;2.60;;;23.80;75.80;;;;;;5055929;28;20173;-92
2023/05/28 11:02:25;;;;;;;5.28;2.80;;;23.80;84.70;;;;;;5055324;28;20182;-93
2023/05/28 11:05:00;;;;;;;4.15;2.88;;;23.90;79.20;;;;;;5054364;28;20512;-89
2023/05/28 11:07:32;;;;;;;4.57;2.20;;;23.90;80.20;;;;;;5055595;28;20231;-89
2023/05/28 11:09:59;;;;;;;5.05;2.45;;;23.90;76.30;;;;;;5054229;28;20212;-90
2023/05/28 11:12:30;;;;;;;5.97;2.70;;;24.00;78.20;;;;;;5054338;28;20185;-89
2023/05/28 11:15:00;;;;;;;4.45;2.60;;;24.20;77.80;;;;;;5054422;28;20182;-91
2023/05/28 11:17:25;;;;;;;5.90;2.50;;;24.40;75.50;;;;;;5055516;28;20491;-90
2023/05/28 11:19:53;;;;;;;6.13;2.80;;;24.70;75.50;;;;;;5055232;28;20178;-91
2023/05/28 11:22:20;;;;;;;5.00;2.70;;;24.70;75.70;;;;;;5055707;28;20261;-91
2023/05/28 11:25:00;;;;;;;5.20;2.70;;;24.80;73.70;;;;;;5053673;28;20601;-90
2023/05/28 11:27:31;;;;;;;5.75;2.75;;;24.70;74.30;;;;;;5054739;28;20236;-92
2023/05/28 11:30:03;;;;;;;8.73;3.15;;;24.20;75.60;;;;;;5053573;28;20186;-89
2023/05/28 11:32:31;;;;;;;7.28;2.72;;;23.80;76.60;;;;;;5055844;28;20162;-93
2023/05/28 11:34:59;;;;;;;3.67;2.05;;;23.40;78.60;;;;;;5055473;28;20224;-90
2023/05/28 11:37:29;;;;;;;5.38;2.72;;;23.10;81.60;;;;;;5055273;28;20239;-90
2023/05/28 11:39:56;;;;;;;4.63;2.00;;;22.90;76.70;;;;;;5053953;28;20312;-90
2023/05/28 11:42:23;;;;;;;4.13;2.53;;;22.70;78.40;;;;;;5053992;28;20178;-92
2023/05/28 11:45:05;;;;;;;5.25;2.25;;;22.70;77.60;;;;;;5054058;28;20208;-91
2023/05/28 11:47:35;;;;;;;5.28;2.30;;;22.60;79.70;;;;;;5054146;28;20233;-90
2023/05/28 11:50:11;;;;;;;3.70;2.03;;;22.60;82.10;;;;;;5053926;28;20181;-92
2023/05/28 11:52:37;;;;;;;3.88;2.22;;;22.60;80.10;;;;;;5055375;28;20162;-90
2023/05/28 11:55:09;;;;;;;4.32;2.22;;;22.60;79.20;;;;;;5053606;28;20208;-90
2023/05/28 11:57:38;;;;;;;4.53;2.60;;;22.70;80.30;;;;;;5054258;28;20178;-92
2023/05/28 12:00:15;;;;;;;3.50;2.38;;;23.00;79.50;;;;;;5054063;28;20677;-90
2023/05/28 12:02:43;;;;;;;5.28;2.22;;;23.40;80.20;;;;;;5055002;28;20161;-91
2023/05/28 12:05:10;;;;;;;5.22;2.42;;;23.80;78.50;;;;;;5035250;28;20178;-90
2023/05/28 12:07:36;;;;;;;6.30;2.10;;;24.00;76.80;;;;;;5037525;28;20217;-88
2023/05/28 12:10:07;;;;;;;5.05;2.22;;;24.20;75.80;;;;;;5054680;28;20181;-94
2023/05/28 12:12:41;;;;;;;7.60;2.33;;;24.40;74.90;;;;;;5053927;28;20621;-91
2023/05/28 12:15:16;;;;;;;3.92;2.10;;;24.70;79.30;;;;;;5055124;28;20176;-90
2023/05/28 12:17:46;;;;;;;5.88;2.42;;;25.00;76.70;;;;;;5054887;28;20166;-92
2023/05/28 12:20:15;;;;;;;4.00;2.15;;;25.10;75.10;;;;;;5054756;28;20174;-94
2023/05/28 12:22:41;;;;;;;5.05;2.00;;;25.20;76.20;;;;;;5054922;28;20181;-90
2023/05/28 12:25:10;;;;;;;7.05;2.20;;;25.20;76.30;;;;;;5053575;28;20173;-93
2023/05/28 12:27:37;;;;;;;3.83;2.13;;;25.20;74.30;;;;;;5054611;28;20297;-90
2023/05/28 12:30:03;;;;;;;3.78;2.08;;;25.30;73.10;;;;;;5053822;28;20219;-93
2023/05/28 12:32:29;;;;;;;4.13;2.00;;;25.20;73.50;;;;;;5054519;28;20606;-90
2023/05/28 12:34:58;;;;;;;3.50;1.90;;;25.00;74.00;;;;;;5053706;28;20174;-91
2023/05/28 12:37:24;;;;;;;3.92;1.83;;;24.80;75.00;;;;;;5054215;28;20158;-90
2023/05/28 12:39:51;;;;;;;4.55;2.15;;;24.60;74.20;;;;;;5054346;28;20186;-94
2023/05/28 12:42:17;;;;;;;3.55;2.20;;;24.50;75.30;;;;;;5053535;28;20178;-93
2023/05/28 12:44:43;;;;;;;5.57;2.17;;;24.50;74.80;;;;;;5054721;28;20181;-88
2023/05/28 12:47:10;;;;;;;5.93;2.25;;;24.50;73.70;;;;;;5053461;28;20211;-92
2023/05/28 12:49:35;;;;;;;5.05;2.40;;;24.60;74.20;;;;;;5057873;28;20217;-91
2023/05/28 12:52:01;;;;;;;4.78;2.33;;;24.70;76.60;;;;;;5058344;28;20198;-90
2023/05/28 12:54:28;;;;;;;4.57;2.30;;;24.70;72.60;;;;;;5057167;28;20183;-91